Accueil
METAR-TAF:

METAR-TAF

Aéroports :

Base aérienne de Chièvres

Chièvres, Belgique

latitude: 50-34N, longitude: 003-50E, altitude: 60 m

Observation

Le bulletin a été fait il y a 39 minutes, à 10:25 UTC
Vent 6 kt de sud-ouest
Température 10°C
Humidité 66%
Pression 1027 hPa
Visibilité 10 km ou plus

METAR: EBCV 161025Z AUTO 22006KT 9999 NCD 10/04 Q1027 BLU

Heure: 12:04 (11:04 UTC)

Prévision

Le bulletin a été fait il y a 2 heures et 23 minutes, à 08:41 UTC
Prévision valable du 16 à 10 UTC au 16 à 19 UTC
Vent 6 kt de sud
Visibilité 10 km ou plus
Ciel clair
Evoluant progressivement
du 16 à 15 UTC au 16 à 19 UTC
Quelques nuages à une hauteur de 25000 ft

TAF: EBCV 160841Z 1610/1619 18006KT 9999 SKC BECMG 1615/1619 FEW250 BY EBWM

Observations et prévisions météorologiques de plus de 4000 aéroports (messages METAR et TAF).

Les stations disponibles sont représentées par des disques jaunes et rouges sur la carte.

Passer la souris dessus pour voir le nom de la station.

Cliquer dessus pour voir les observations et prévisions météorologiques.

Pour changer de carte: cliquez sur les boutons verts avec une croix noire pour zoomer, sur le bouton vert avec un tiret pour effectuer un zoom arrière, ou sur les flèches vertes pour les cartes adjacentes.


METAR-TAF: